Main page
METAR-TAF:

METAR-TAF

Airports :

Aigen im Ennstal, Austria

latitude: 47-32N, longitude: 014-08E, elevation: 638 m

METAR: missing

Time: 03:46 (01:46 UTC)

Forecast

The report was made 14 hours and 31 minutes ago, at 11:15 UTC
Forecast valid from 25 at 12 UTC to 25 at 21 UTC
Wind 6 kt from the East/Northeast
Visibility 10 km or more
Few clouds at a height of 5000 ft
Broken clouds at a height of 9000 ft
Becoming
from 25 at 17 UTC to 25 at 19 UTC
Wind 3 kt from variable directions
Few clouds at a height of 5000 ft
Scattered clouds at a height of 12000 ft

TAF: LOXA 251115Z 2512/2521 07006KT 9999 FEW050 BKN090 BECMG 2517/2519 VRB03KT FEW050 SCT120

Weather observations and forecasts of more than 4000 airports (METAR and TAF reports).

The available stations are represented by yellow and red dots on the map.

Hover mouse over dot to see the name of the station.

Then click to see weather observations and forecasts.

To change the map : click on the green buttons with a black cross to zoom in, on the green button with a dash to zoom out, or on the green arrows for adjacent maps.


METAR-TAF: